Ellsworth, Wisconsin
Current Conditions -  °F | °C
As of 6:51 AM on Thursday 23 Oct 2014 (Local Time) from K21D Reporting Station
Overcast Overcast  
Wind Chill: 50°   Ceiling: 900
Heat Index: 50°   Visibility: 10mi
Dew Point: 48°   Wind: 8mph
Humidity: 94%   Direction: 190°S
Pressure: 30"   Gusts: NA
Location:  44.73°N, 92.49°W
Report Text: K21D 231151Z AUTO 19007KT 10SM OVC009 10/09 A3000 RMK AO2
Loading
Personal Weather Stations






























Interactive Weather Map
Tropical Storm Tracking
New forecast layout! Learn more

10-Day Weather Forecast

Advertisements
Track Severe Weather on mobile